^^

Weather Underground History

Daily Summary for February 16, 2018 Units:  Metric    English   Both
Daily Weekly Monthly Yearly
  High: Low: Average:
Temperature: 5 °C 1 °C 2.3 °C
Dew Point: 2 °C -1 °C 0.4 °C
Humidity: 91% 75% 87%
Wind Speed: 31km/h 6km/h 15.7km/h
Wind Gust: 42km/h - -
Wind- - WSW
Pressure: 991.5 hPa 988.1 hPa -
Precipitation: 1.5 mm    
 
 
Tabular Data for February 16, 2018
Time Temperature Dew Point Pressure Wind Wind Speed Wind Gust Humidity Rainfall Rate (Hourly) solar
00:06 3 °C 2 °C 988.5 hPa WSW 6 km/h 13 km/h 90% 0.0 mm 0 W/m2
00:11 3 °C 2 °C 988.5 hPa WSW 11 km/h 16 km/h 90% 0.0 mm 0 W/m2
00:18 3 °C 2 °C 988.1 hPa WSW 11 km/h 23 km/h 90% 0.0 mm 0 W/m2
00:25 3 °C 2 °C 988.5 hPa WSW 14 km/h 21 km/h 90% 0.0 mm 0 W/m2
00:41 3 °C 2 °C 988.1 hPa West 18 km/h 23 km/h 90% 0.0 mm 0 W/m2
00:49 4 °C 2 °C 988.1 hPa WSW 21 km/h 24 km/h 89% 0.0 mm 0 W/m2
00:57 4 °C 2 °C 988.1 hPa WSW 18 km/h 21 km/h 89% 0.0 mm 0 W/m2
01:09 4 °C 2 °C 988.5 hPa West 11 km/h 23 km/h 88% 0.0 mm 0 W/m2
01:20 4 °C 2 °C 988.1 hPa WNW 27 km/h 34 km/h 88% 0.0 mm 0 W/m2
01:28 4 °C 2 °C 988.5 hPa West 16 km/h 24 km/h 87% 0.0 mm 0 W/m2
01:35 3 °C 2 °C 988.1 hPa West 13 km/h 19 km/h 87% 0.0 mm 0 W/m2
01:53 3 °C 2 °C 988.1 hPa SW 6 km/h 10 km/h 88% 0.0 mm 0 W/m2
01:58 3 °C 2 °C 988.1 hPa SW 8 km/h 10 km/h 89% 0.0 mm 0 W/m2
02:07 3 °C 2 °C 988.1 hPa West 13 km/h 16 km/h 89% 0.0 mm 0 W/m2
02:21 3 °C 2 °C 988.1 hPa West 14 km/h 26 km/h 89% 0.0 mm 0 W/m2
02:31 3 °C 2 °C 988.1 hPa WSW 13 km/h 13 km/h 88% 0.0 mm 0 W/m2
02:38 3 °C 2 °C 988.1 hPa WSW 11 km/h 16 km/h 89% 0.0 mm 0 W/m2
02:44 3 °C 2 °C 988.1 hPa WSW 11 km/h 23 km/h 88% 0.0 mm 0 W/m2
02:56 3 °C 2 °C 988.1 hPa West 8 km/h 16 km/h 89% 0.0 mm 0 W/m2
03:01 3 °C 2 °C 988.5 hPa West 6 km/h 19 km/h 88% 0.0 mm 0 W/m2
03:09 3 °C 2 °C 988.1 hPa WSW 18 km/h 23 km/h 89% 0.0 mm 0 W/m2
03:20 3 °C 1 °C 988.5 hPa WNW 14 km/h 24 km/h 87% 0.0 mm 0 W/m2
03:28 2 °C 1 °C 988.5 hPa WNW 11 km/h 14 km/h 89% 1.3 mm 0 W/m2
03:35 2 °C 1 °C 988.5 hPa West 18 km/h 18 km/h 91% 1.3 mm 0 W/m2
03:49 2 °C 1 °C 988.5 hPa WNW 16 km/h 16 km/h 90% 2.5 mm 0 W/m2
04:01 2 °C 1 °C 988.5 hPa WNW 18 km/h 26 km/h 91% 1.3 mm 0 W/m2
04:07 2 °C 1 °C 988.5 hPa WNW 13 km/h 21 km/h 91% 1.0 mm 0 W/m2
04:15 3 °C 1 °C 988.8 hPa WNW 13 km/h 19 km/h 90% 0.0 mm 0 W/m2
04:25 2 °C 1 °C 988.5 hPa West 8 km/h 19 km/h 89% 0.0 mm 0 W/m2
04:31 2 °C 1 °C 988.5 hPa WSW 23 km/h 26 km/h 89% 0.0 mm 0 W/m2
04:42 2 °C 1 °C 988.5 hPa West 18 km/h 21 km/h 88% 0.0 mm 0 W/m2
05:03 2 °C 1 °C 988.8 hPa West 8 km/h 16 km/h 89% 0.0 mm 0 W/m2
05:31 2 °C 1 °C 988.8 hPa West 14 km/h 26 km/h 87% 0.0 mm 0 W/m2
05:39 2 °C 1 °C 988.8 hPa WSW 13 km/h 24 km/h 86% 0.0 mm 0 W/m2
05:59 3 °C 1 °C 989.2 hPa WNW 31 km/h 34 km/h 85% 0.0 mm 0 W/m2
06:09 2 °C 0 °C 989.8 hPa WNW 26 km/h 35 km/h 85% 0.0 mm 0 W/m2
06:23 1 °C -1 °C 989.5 hPa WNW 16 km/h 21 km/h 90% 0.0 mm 0 W/m2
06:28 1 °C -1 °C 989.8 hPa WNW 10 km/h 16 km/h 90% 0.0 mm 0 W/m2
06:34 1 °C 0 °C 989.5 hPa West 13 km/h 19 km/h 91% 0.0 mm 0 W/m2
06:45 1 °C 0 °C 989.5 hPa WSW 10 km/h 14 km/h 91% 0.0 mm 0 W/m2
06:54 1 °C 0 °C 989.5 hPa WSW 19 km/h 19 km/h 91% 0.0 mm 0 W/m2
07:00 2 °C 0 °C 989.8 hPa West 21 km/h 21 km/h 91% 0.0 mm 0 W/m2
07:20 2 °C 1 °C 990.2 hPa West 16 km/h 24 km/h 89% 0.0 mm 0 W/m2
07:27 2 °C 0 °C 990.2 hPa West 14 km/h 21 km/h 87% 0.0 mm 0 W/m2
07:34 2 °C 0 °C 990.2 hPa West 13 km/h 16 km/h 87% 0.0 mm 0 W/m2
07:39 2 °C 0 °C 990.2 hPa West 14 km/h 21 km/h 87% 0.0 mm 0 W/m2
07:45 2 °C 0 °C 990.2 hPa West 19 km/h 21 km/h 86% 0.0 mm 0 W/m2
07:52 2 °C 0 °C 990.2 hPa West 13 km/h 14 km/h 86% 0.0 mm 0 W/m2
08:00 2 °C -1 °C 990.2 hPa WSW 19 km/h 19 km/h 86% 0.0 mm 0 W/m2
08:06 2 °C -1 °C 990.5 hPa West 8 km/h 18 km/h 86% 0.0 mm 7 W/m2
08:14 2 °C 0 °C 990.5 hPa SW 11 km/h 19 km/h 87% 0.0 mm 11 W/m2
08:20 2 °C 0 °C 990.5 hPa WSW 10 km/h 18 km/h 87% 0.0 mm 23 W/m2
08:32 2 °C 0 °C 990.5 hPa West 11 km/h 18 km/h 87% 0.0 mm 19 W/m2
08:40 2 °C 0 °C 990.5 hPa WSW 11 km/h 19 km/h 87% 0.0 mm 65 W/m2
08:47 2 °C 0 °C 990.5 hPa WSW 10 km/h 14 km/h 87% 0.0 mm 40 W/m2
08:59 2 °C 0 °C 990.9 hPa WSW 11 km/h 13 km/h 87% 0.0 mm 74 W/m2
09:12 2 °C 1 °C 990.9 hPa WSW 11 km/h 16 km/h 87% 0.0 mm 69 W/m2
09:17 2 °C 0 °C 990.9 hPa WSW 18 km/h 21 km/h 86% 0.0 mm 77 W/m2
09:25 2 °C 1 °C 991.2 hPa West 14 km/h 23 km/h 87% 0.0 mm 88 W/m2
09:31 3 °C 1 °C 991.2 hPa West 11 km/h 23 km/h 86% 0.0 mm 118 W/m2
09:37 3 °C 1 °C 991.2 hPa SW 16 km/h 24 km/h 87% 0.0 mm 185 W/m2
09:42 3 °C 1 °C 991.2 hPa West 14 km/h 21 km/h 87% 0.0 mm 290 W/m2
10:01 3 °C 1 °C 991.5 hPa WSW 21 km/h 24 km/h 86% 0.0 mm 218 W/m2
10:13 3 °C 1 °C 991.5 hPa WSW 19 km/h 27 km/h 84% 0.0 mm 176 W/m2
10:37 3 °C 1 °C 991.5 hPa SW 11 km/h 18 km/h 84% 0.0 mm 72 W/m2
10:53 3 °C 1 °C 991.5 hPa WSW 18 km/h 19 km/h 85% 0.0 mm 118 W/m2
11:08 3 °C 1 °C 991.2 hPa SW 16 km/h 23 km/h 84% 0.0 mm 97 W/m2
11:17 3 °C 1 °C 991.2 hPa SW 23 km/h 23 km/h 85% 0.0 mm 76 W/m2
11:22 3 °C 1 °C 991.2 hPa WSW 13 km/h 26 km/h 84% 0.0 mm 142 W/m2
11:29 3 °C 1 °C 991.2 hPa WSW 14 km/h 34 km/h 84% 0.0 mm 327 W/m2
11:34 4 °C 1 °C 991.2 hPa WSW 8 km/h 16 km/h 84% 0.0 mm 302 W/m2
11:42 4 °C 2 °C 991.2 hPa WSW 19 km/h 31 km/h 84% 0.0 mm 388 W/m2
11:49 4 °C 2 °C 990.9 hPa West 26 km/h 37 km/h 83% 0.0 mm 329 W/m2
11:55 4 °C 1 °C 990.9 hPa West 23 km/h 35 km/h 81% 0.0 mm 281 W/m2
12:00 4 °C 1 °C 990.9 hPa West 23 km/h 29 km/h 82% 0.0 mm 193 W/m2
12:05 4 °C 1 °C 990.5 hPa West 14 km/h 27 km/h 81% 0.0 mm 302 W/m2
12:15 4 °C 1 °C 990.9 hPa SW 24 km/h 31 km/h 80% 0.0 mm 135 W/m2
12:22 4 °C 1 °C 990.5 hPa West 23 km/h 26 km/h 79% 0.0 mm 104 W/m2
12:27 4 °C 1 °C 990.5 hPa West 23 km/h 39 km/h 78% 0.0 mm 146 W/m2
12:52 4 °C 1 °C 990.5 hPa WSW 24 km/h 42 km/h 77% 0.0 mm 276 W/m2
12:57 4 °C 1 °C 990.5 hPa West 21 km/h 27 km/h 77% 0.0 mm 257 W/m2
13:04 4 °C 1 °C 990.5 hPa WSW 27 km/h 35 km/h 76% 0.0 mm 264 W/m2
13:13 4 °C 1 °C 990.5 hPa West 19 km/h 27 km/h 75% 0.0 mm 213 W/m2
13:22 5 °C 1 °C 990.5 hPa WSW 29 km/h 39 km/h 75% 0.0 mm 236 W/m2
13:32 4 °C 1 °C 990.5 hPa West 19 km/h 32 km/h 75% 0.0 mm 111 W/m2
13:39 4 °C 1 °C 990.2 hPa WSW 21 km/h 26 km/h 76% 0.0 mm 204 W/m2
13:52 4 °C 1 °C 990.2 hPa West 14 km/h 19 km/h 78% 0.0 mm 179 W/m2
13:57 4 °C 1 °C 990.2 hPa West 21 km/h 27 km/h 77% 0.0 mm 148 W/m2
14:03 4 °C 1 °C 990.5 hPa WSW 14 km/h 21 km/h 78% 0.0 mm 91 W/m2
14:09 4 °C 1 °C 990.2 hPa West 26 km/h 29 km/h 79% 0.0 mm 121 W/m2
14:23 3 °C 1 °C 990.2 hPa WSW 19 km/h 31 km/h 81% 0.0 mm 91 W/m2
14:30 3 °C 1 °C 990.2 hPa WNW 18 km/h 24 km/h 83% 0.0 mm 81 W/m2
14:35 3 °C 1 °C 990.2 hPa WSW 16 km/h 16 km/h 83% 0.0 mm 65 W/m2
14:46 3 °C 1 °C 990.2 hPa West 16 km/h 19 km/h 83% 0.0 mm 51 W/m2
14:55 3 °C 1 °C 990.2 hPa WSW 23 km/h 26 km/h 84% 0.0 mm 42 W/m2
15:02 3 °C 1 °C 990.2 hPa West 13 km/h 29 km/h 83% 0.0 mm 39 W/m2
15:12 3 °C 1 °C 990.2 hPa WSW 26 km/h 31 km/h 83% 0.0 mm 30 W/m2
15:19 3 °C 1 °C 990.2 hPa WSW 11 km/h 23 km/h 84% 0.0 mm 32 W/m2
15:30 3 °C 1 °C 989.8 hPa SW 13 km/h 23 km/h 84% 0.0 mm 44 W/m2
15:35 3 °C 1 °C 989.8 hPa SW 18 km/h 27 km/h 84% 0.0 mm 47 W/m2
15:43 3 °C 1 °C 989.8 hPa WSW 18 km/h 24 km/h 83% 0.0 mm 35 W/m2
16:00 3 °C 1 °C 989.5 hPa WSW 8 km/h 19 km/h 84% 0.0 mm 9 W/m2
16:14 3 °C 1 °C 989.5 hPa WSW 13 km/h 19 km/h 84% 0.0 mm 0 W/m2
16:20 3 °C 1 °C 989.5 hPa SW 14 km/h 24 km/h 84% 0.0 mm 0 W/m2
16:29 3 °C 0 °C 989.5 hPa SW 19 km/h 29 km/h 84% 0.0 mm 0 W/m2
16:42 2 °C 1 °C 989.5 hPa WSW 14 km/h 24 km/h 86% 0.0 mm 0 W/m2
16:51 2 °C 1 °C 989.2 hPa WSW 8 km/h 16 km/h 88% 0.0 mm 0 W/m2
16:57 2 °C 1 °C 989.5 hPa SW 18 km/h 24 km/h 89% 0.0 mm 0 W/m2
17:02 2 °C 0 °C 989.5 hPa SW 19 km/h 24 km/h 89% 0.0 mm 0 W/m2
17:08 2 °C 0 °C 989.5 hPa West 18 km/h 21 km/h 89% 0.0 mm 0 W/m2
17:21 2 °C 0 °C 989.2 hPa WSW 13 km/h 26 km/h 90% 0.0 mm 0 W/m2
17:32 1 °C 0 °C 989.5 hPa SW 16 km/h 21 km/h 90% 0.0 mm 0 W/m2
17:42 1 °C 0 °C 989.2 hPa WSW 10 km/h 14 km/h 90% 0.0 mm 0 W/m2
18:01 1 °C 0 °C 989.2 hPa WSW 11 km/h 23 km/h 91% 0.0 mm 0 W/m2
18:06 1 °C 0 °C 989.2 hPa WSW 16 km/h 21 km/h 91% 0.0 mm 0 W/m2
18:18 1 °C 0 °C 989.2 hPa West 24 km/h 29 km/h 91% 0.0 mm 0 W/m2
18:32 1 °C -1 °C 989.2 hPa WSW 27 km/h 27 km/h 89% 0.0 mm 0 W/m2
18:40 1 °C -1 °C 989.2 hPa WSW 14 km/h 27 km/h 89% 0.0 mm 0 W/m2
18:48 1 °C -1 °C 989.2 hPa WSW 16 km/h 23 km/h 89% 0.0 mm 0 W/m2
18:54 1 °C -1 °C 989.2 hPa West 19 km/h 21 km/h 89% 0.0 mm 0 W/m2
19:05 1 °C 0 °C 989.2 hPa WSW 16 km/h 21 km/h 90% 0.0 mm 0 W/m2
19:17 1 °C 0 °C 989.2 hPa West 10 km/h 27 km/h 89% 0.0 mm 0 W/m2
19:34 1 °C -1 °C 989.5 hPa West 8 km/h 23 km/h 89% 0.0 mm 0 W/m2
19:44 1 °C -1 °C 989.2 hPa SW 18 km/h 18 km/h 89% 0.0 mm 0 W/m2
19:52 1 °C -1 °C 989.2 hPa WSW 11 km/h 21 km/h 89% 0.0 mm 0 W/m2
20:01 1 °C -1 °C 989.2 hPa West 19 km/h 23 km/h 89% 0.0 mm 0 W/m2
20:09 1 °C -1 °C 989.2 hPa WSW 19 km/h 19 km/h 89% 0.0 mm 0 W/m2
20:22 1 °C -1 °C 989.2 hPa WSW 16 km/h 29 km/h 88% 0.0 mm 0 W/m2
20:34 1 °C -1 °C 989.2 hPa WSW 16 km/h 27 km/h 87% 0.0 mm 0 W/m2
20:39 1 °C -1 °C 989.2 hPa West 13 km/h 24 km/h 87% 0.0 mm 0 W/m2
20:48 1 °C -1 °C 989.5 hPa WSW 14 km/h 23 km/h 88% 0.0 mm 0 W/m2
20:54 1 °C -1 °C 989.2 hPa West 21 km/h 27 km/h 88% 0.0 mm 0 W/m2
21:01 1 °C -1 °C 989.2 hPa SW 18 km/h 24 km/h 89% 0.0 mm 0 W/m2
21:06 1 °C -1 °C 989.2 hPa West 10 km/h 23 km/h 89% 0.0 mm 0 W/m2
21:12 1 °C -1 °C 989.5 hPa WSW 16 km/h 19 km/h 89% 0.0 mm 0 W/m2
21:21 1 °C -1 °C 989.5 hPa West 11 km/h 19 km/h 89% 0.0 mm 0 W/m2
21:26 1 °C -1 °C 989.5 hPa WSW 24 km/h 29 km/h 89% 0.0 mm 0 W/m2
21:35 1 °C -1 °C 989.5 hPa WSW 11 km/h 26 km/h 89% 0.0 mm 0 W/m2
21:41 1 °C -1 °C 989.5 hPa West 18 km/h 19 km/h 89% 0.0 mm 0 W/m2
21:46 1 °C -1 °C 989.5 hPa WSW 16 km/h 24 km/h 89% 0.0 mm 0 W/m2
21:54 1 °C -1 °C 989.5 hPa West 14 km/h 16 km/h 89% 0.0 mm 0 W/m2
22:02 1 °C -1 °C 989.5 hPa West 14 km/h 21 km/h 90% 0.0 mm 0 W/m2
22:07 1 °C -1 °C 989.8 hPa WSW 11 km/h 21 km/h 90% 0.0 mm 0 W/m2
22:13 1 °C -1 °C 989.8 hPa West 13 km/h 23 km/h 90% 0.0 mm 0 W/m2
22:28 1 °C -1 °C 989.8 hPa WSW 10 km/h 18 km/h 89% 0.0 mm 0 W/m2
22:37 1 °C -1 °C 989.8 hPa WSW 6 km/h 18 km/h 89% 0.0 mm 0 W/m2
22:44 1 °C -1 °C 989.8 hPa WSW 18 km/h 21 km/h 89% 0.0 mm 0 W/m2
22:49 1 °C -1 °C 989.8 hPa West 11 km/h 21 km/h 89% 0.0 mm 0 W/m2
23:07 1 °C -1 °C 990.2 hPa West 14 km/h 27 km/h 88% 0.0 mm 0 W/m2
23:19 1 °C -1 °C 990.5 hPa SW 18 km/h 31 km/h 88% 0.0 mm 0 W/m2
23:32 1 °C -1 °C 990.5 hPa WSW 19 km/h 29 km/h 86% 0.0 mm 0 W/m2
23:37 1 °C -1 °C 990.2 hPa WSW 21 km/h 27 km/h 86% 0.0 mm 0 W/m2
23:45 1 °C -1 °C 990.2 hPa WSW 16 km/h 23 km/h 85% 0.0 mm 0 W/m2
23:50 1 °C -1 °C 990.2 hPa WSW 13 km/h 27 km/h 85% 0.0 mm 0 W/m2
Compliments of Weather Underground - 3.25 mb